Time;durP1;ratioP1;P1;durP2;ratioP2;P2;SDS_P1;SDS_P2;PMS_P1;PMS_P2;Temp;Humidity;BMP_temperature;BMP_pressure;BME280_temperature;BME280_humidity;BME280_pressure;Samples;Min_cycle;Max_cycle;Signal;HPM_P1;HPM_P2
2024/03/15 00:01:25;;;;;;;;;;;7.70;99.90;;;;;;21140172;28;19919;-79
2024/03/15 00:11:26;;;;;;;;;;;7.70;99.90;;;;;;21171789;28;20008;-78
2024/03/15 00:21:26;;;;;;;;;;;7.60;99.90;;;;;;21184172;28;19934;-80
2024/03/15 00:31:27;;;;;;;;;;;7.40;99.90;;;;;;21178430;28;19923;-80
2024/03/15 00:41:28;;;;;;;;;;;7.60;99.90;;;;;;21174887;28;20402;-80
2024/03/15 00:51:29;;;;;;;;;;;7.30;99.90;;;;;;21164362;28;19965;-80
2024/03/15 01:01:29;;;;;;;;;;;7.20;99.90;;;;;;21180546;28;19974;-80
2024/03/15 01:11:30;;;;;;;;;;;7.20;99.90;;;;;;21174440;28;19922;-80
2024/03/15 01:21:31;;;;;;;;;;;7.30;99.90;;;;;;21189106;28;20396;-80
2024/03/15 01:31:31;;;;;;;;;;;6.90;99.90;;;;;;21157596;28;19916;-81
2024/03/15 01:41:32;;;;;;;;;;;6.70;99.90;;;;;;21163392;28;19911;-80
2024/03/15 01:51:33;;;;;;;;;;;6.70;99.90;;;;;;21183943;28;19916;-80
2024/03/15 02:01:33;;;;;;;;;;;6.40;99.90;;;;;;21221324;28;19912;-81
2024/03/15 02:11:34;;;;;;;;;;;6.60;99.90;;;;;;21187620;28;19923;-79
2024/03/15 02:21:34;;;;;;;;;;;6.50;99.90;;;;;;21191826;28;19918;-80
2024/03/15 02:31:35;;;;;;;;;;;6.60;99.90;;;;;;21187996;28;19943;-81
2024/03/15 02:41:37;;;;;;;;;;;6.70;99.90;;;;;;21148458;28;21287;-80
2024/03/15 02:51:38;;;;;;;;;;;6.60;99.90;;;;;;21173423;28;20370;-79
2024/03/15 03:01:38;;;;;;;;;;;6.40;99.90;;;;;;21190157;28;19916;-81
2024/03/15 03:11:39;;;;;;;;;;;6.40;99.90;;;;;;21207870;28;20022;-79
2024/03/15 03:21:40;;;;;;;;;;;6.40;99.90;;;;;;21203723;28;19918;-80
2024/03/15 03:31:40;;;;;;;;;;;6.30;99.90;;;;;;21192645;28;19920;-77
2024/03/15 03:41:41;;;;;;;;;;;6.40;99.90;;;;;;21166805;28;20006;-78
2024/03/15 03:51:41;;;;;;;;;;;6.30;99.90;;;;;;21164062;28;19923;-78
2024/03/15 04:01:43;;;;;;;;;;;6.40;99.90;;;;;;21162288;28;19919;-77
2024/03/15 04:11:43;;;;;;;;;;;6.00;99.90;;;;;;21149307;28;19916;-78
2024/03/15 04:21:44;;;;;;;;;;;5.90;99.90;;;;;;21124076;28;20422;-78
2024/03/15 04:31:44;;;;;;;;;;;5.80;99.90;;;;;;21139698;28;19916;-77
2024/03/15 04:41:45;;;;;;;;;;;6.00;99.90;;;;;;21140286;28;19912;-78
2024/03/15 04:51:46;;;;;;;;;;;6.10;99.90;;;;;;21160936;28;20386;-78
2024/03/15 05:01:46;;;;;;;;;;;6.20;99.90;;;;;;21148335;28;20302;-77
2024/03/15 05:11:47;;;;;;;;;;;6.00;99.90;;;;;;21165236;28;20386;-78
2024/03/15 05:21:49;;;;;;;;;;;5.60;99.90;;;;;;21156328;28;19911;-78
2024/03/15 05:31:51;;;;;;;;;;;5.60;99.90;;;;;;21157208;28;19923;-78
2024/03/15 05:41:51;;;;;;;;;;;5.60;99.90;;;;;;21189719;28;19912;-77
2024/03/15 05:51:52;;;;;;;;;;;5.70;99.90;;;;;;21162783;28;20393;-78
2024/03/15 06:01:53;;;;;;;;;;;5.90;99.90;;;;;;21171779;28;19911;-78
2024/03/15 06:11:54;;;;;;;;;;;5.90;99.90;;;;;;21141757;28;19998;-77
2024/03/15 06:21:55;;;;;;;;;;;6.10;99.90;;;;;;21183232;28;19919;-78
2024/03/15 06:31:55;;;;;;;;;;;6.30;99.90;;;;;;21157793;28;19916;-77
2024/03/15 06:41:57;;;;;;;;;;;6.40;99.90;;;;;;21152260;28;19916;-78
2024/03/15 07:02:17;;;;;;;;;;;6.90;99.90;;;;;;21188605;28;19911;-77
2024/03/15 07:12:18;;;;;;;;;;;7.90;99.90;;;;;;21165533;28;19926;-76
2024/03/15 07:22:19;;;;;;;;;;;9.10;99.90;;;;;;21171786;28;19912;-77
2024/03/15 07:32:21;;;;;;;;;;;10.00;99.90;;;;;;21168804;28;19911;-77
2024/03/15 07:42:21;;;;;;;;;;;9.70;99.90;;;;;;21181857;28;19911;-78
2024/03/15 07:52:22;;;;;;;;;;;10.80;99.90;;;;;;21182628;28;19997;-78
2024/03/15 08:02:24;;;;;;;;;;;11.90;99.90;;;;;;21203372;28;19912;-77
2024/03/15 08:12:26;;;;;;;;;;;12.30;99.90;;;;;;21196384;28;19916;-78
2024/03/15 08:22:27;;;;;;;;;;;13.60;99.90;;;;;;21207916;28;19971;-78
2024/03/15 08:32:29;;;;;;;;;;;14.80;99.90;;;;;;21204035;28;19918;-78
2024/03/15 08:42:30;;;;;;;;;;;15.30;99.90;;;;;;21195975;28;20370;-78
2024/03/15 08:52:31;;;;;;;;;;;15.10;99.90;;;;;;21157531;28;19933;-78
2024/03/15 09:02:31;;;;;;;;;;;14.80;99.90;;;;;;21194950;28;19912;-78
2024/03/15 09:12:32;;;;;;;;;;;14.50;99.90;;;;;;21168609;28;20374;-78
2024/03/15 09:22:33;;;;;;;;;;;14.70;99.90;;;;;;21203098;28;19920;-78
2024/03/15 09:32:34;;;;;;;;;;;14.30;99.90;;;;;;21200566;28;19958;-78
2024/03/15 09:42:35;;;;;;;;;;;14.30;99.90;;;;;;21193218;28;19926;-78
2024/03/15 09:52:36;;;;;;;;;;;14.70;99.90;;;;;;21206806;28;19939;-77
2024/03/15 10:02:36;;;;;;;;;;;14.20;99.90;;;;;;21185857;28;20302;-77
2024/03/15 10:12:41;;;;;;;;;;;13.90;99.90;;;;;;21199194;28;19968;-77
2024/03/15 10:22:42;;;;;;;;;;;14.30;99.90;;;;;;21194829;28;19922;-78
2024/03/15 10:32:46;;;;;;;;;;;14.60;99.90;;;;;;21197804;28;19923;-77
2024/03/15 10:42:48;;;;;;;;;;;14.70;99.90;;;;;;21174840;28;20398;-77
2024/03/15 10:52:49;;;;;;;;;;;15.30;99.90;;;;;;21195778;28;19911;-77
2024/03/15 11:02:51;;;;;;;;;;;14.80;99.90;;;;;;21187328;28;19973;-77
2024/03/15 11:12:52;;;;;;;;;;;14.50;99.90;;;;;;21142718;28;19923;-76
2024/03/15 11:22:55;;;;;;;;;;;15.10;99.90;;;;;;21138310;28;19920;-77
2024/03/15 11:32:56;;;;;;;;;;;14.80;99.90;;;;;;21136050;28;19965;-76
2024/03/15 11:42:57;;;;;;;;;;;14.60;99.90;;;;;;21137199;28;19919;-77
2024/03/15 11:53:02;;;;;;;;;;;15.10;99.90;;;;;;21177417;28;19912;-78
2024/03/15 12:03:03;;;;;;;;;;;15.50;99.90;;;;;;21176307;28;19915;-78
2024/03/15 12:13:12;;;;;;;;;;;15.40;99.90;;;;;;21158230;28;19916;-78
2024/03/15 12:23:17;;;;;;;;;;;15.10;99.90;;;;;;21148664;28;19923;-78
2024/03/15 12:33:18;;;;;;;;;;;15.30;99.90;;;;;;21157307;28;19919;-77
2024/03/15 12:43:19;;;;;;;;;;;15.50;99.90;;;;;;21158000;28;20398;-78
2024/03/15 12:53:20;;;;;;;;;;;16.00;99.90;;;;;;21172710;28;19915;-78
2024/03/15 13:03:20;;;;;;;;;;;15.70;99.90;;;;;;21180310;28;19916;-78
2024/03/15 13:13:21;;;;;;;;;;;15.50;99.90;;;;;;21179419;28;19961;-78
2024/03/15 13:23:22;;;;;;;;;;;16.10;99.90;;;;;;21174704;28;19916;-77
2024/03/15 13:33:23;;;;;;;;;;;17.30;99.90;;;;;;21168521;28;19912;-77
2024/03/15 13:43:23;;;;;;;;;;;16.60;99.90;;;;;;21173965;28;19979;-79
2024/03/15 13:53:24;;;;;;;;;;;16.70;99.90;;;;;;21175607;28;19915;-77
2024/03/15 14:03:24;;;;;;;;;;;17.70;99.90;;;;;;21184812;28;20294;-79
2024/03/15 14:13:26;;;;;;;;;;;16.90;99.90;;;;;;21176975;28;19915;-79
2024/03/15 14:23:26;;;;;;;;;;;16.20;99.90;;;;;;21170497;28;20424;-79
2024/03/15 14:33:27;;;;;;;;;;;16.30;99.90;;;;;;21182128;28;19911;-79
2024/03/15 14:43:28;;;;;;;;;;;16.90;99.90;;;;;;21179220;28;19919;-80
2024/03/15 14:53:28;;;;;;;;;;;16.20;99.90;;;;;;21163522;28;19920;-78
2024/03/15 15:03:29;;;;;;;;;;;16.60;99.90;;;;;;21122347;28;19916;-78
2024/03/15 15:13:34;;;;;;;;;;;16.20;99.90;;;;;;21115748;28;20035;-77
2024/03/15 15:23:35;;;;;;;;;;;15.40;99.90;;;;;;21139683;28;19916;-77
2024/03/15 15:33:35;;;;;;;;;;;14.40;99.90;;;;;;21163698;28;19918;-78
2024/03/15 15:43:36;;;;;;;;;;;15.40;99.90;;;;;;21162758;28;19915;-78
2024/03/15 15:53:39;;;;;;;;;;;15.30;99.90;;;;;;21157704;28;20003;-79
2024/03/15 16:03:39;;;;;;;;;;;15.50;99.90;;;;;;21182484;28;19915;-78
2024/03/15 16:13:40;;;;;;;;;;;15.60;99.90;;;;;;21174391;28;19926;-77
2024/03/15 16:23:41;;;;;;;;;;;15.00;99.90;;;;;;21171484;28;19923;-78
2024/03/15 16:33:42;;;;;;;;;;;14.70;99.90;;;;;;21160800;28;19998;-78
2024/03/15 16:43:42;;;;;;;;;;;14.50;99.90;;;;;;21122266;28;20421;-77
2024/03/15 16:53:43;;;;;;;;;;;14.40;99.90;;;;;;21118332;28;19920;-77
2024/03/15 17:03:44;;;;;;;;;;;14.30;99.90;;;;;;21165841;28;19999;-77
2024/03/15 17:13:44;;;;;;;;;;;14.20;99.90;;;;;;21159108;28;20484;-77
2024/03/15 17:23:45;;;;;;;;;;;14.10;99.90;;;;;;21152597;28;20264;-76
2024/03/15 17:33:46;;;;;;;;;;;14.10;99.90;;;;;;21164629;28;20014;-76
2024/03/15 17:43:46;;;;;;;;;;;13.80;99.90;;;;;;21172751;28;19920;-77
2024/03/15 17:53:47;;;;;;;;;;;13.70;99.90;;;;;;21185347;28;19923;-78
2024/03/15 18:03:47;;;;;;;;;;;13.50;99.90;;;;;;21168247;28;19951;-77
2024/03/15 18:13:48;;;;;;;;;;;13.40;99.90;;;;;;21161452;28;19916;-77
2024/03/15 18:23:49;;;;;;;;;;;13.50;99.90;;;;;;21169428;28;19916;-77
2024/03/15 18:33:50;;;;;;;;;;;13.60;99.90;;;;;;21179365;28;19911;-77
2024/03/15 18:43:50;;;;;;;;;;;13.50;99.90;;;;;;21171629;28;19929;-76
2024/03/15 18:53:51;;;;;;;;;;;13.40;99.90;;;;;;21168320;28;19912;-77
2024/03/15 19:03:52;;;;;;;;;;;13.30;99.90;;;;;;21170679;28;19916;-77
2024/03/15 19:13:52;;;;;;;;;;;13.30;99.90;;;;;;21164318;28;19916;-77
2024/03/15 19:23:53;;;;;;;;;;;13.20;99.90;;;;;;21169597;28;20298;-77
2024/03/15 19:33:54;;;;;;;;;;;13.00;99.90;;;;;;21175597;28;20031;-77
2024/03/15 19:43:55;;;;;;;;;;;12.90;99.90;;;;;;21149021;28;19922;-76
2024/03/15 19:53:56;;;;;;;;;;;12.70;99.90;;;;;;21142973;28;19966;-77
2024/03/15 20:03:56;;;;;;;;;;;12.60;99.90;;;;;;21153981;28;20343;-77
2024/03/15 20:14:01;;;;;;;;;;;12.30;99.90;;;;;;21159753;28;19949;-78
2024/03/15 20:24:01;;;;;;;;;;;12.00;99.90;;;;;;21156240;28;20223;-77
2024/03/15 20:34:02;;;;;;;;;;;12.10;99.90;;;;;;21155931;28;19923;-77
2024/03/15 20:44:03;;;;;;;;;;;11.80;99.90;;;;;;21154886;28;20278;-77
2024/03/15 20:54:04;;;;;;;;;;;11.70;99.90;;;;;;21119746;28;19918;-78
2024/03/15 21:04:05;;;;;;;;;;;11.60;99.90;;;;;;21112311;28;20286;-77
2024/03/15 21:14:06;;;;;;;;;;;10.30;99.90;;;;;;21141051;28;19916;-79
2024/03/15 21:24:06;;;;;;;;;;;9.90;99.90;;;;;;21142766;28;19939;-78
2024/03/15 21:34:07;;;;;;;;;;;9.40;99.90;;;;;;21112955;28;19944;-78
2024/03/15 21:44:10;;;;;;;;;;;9.50;99.90;;;;;;21119638;28;19916;-78
2024/03/15 21:54:11;;;;;;;;;;;9.00;99.90;;;;;;21129782;28;20015;-78
2024/03/15 22:04:18;;;;;;;;;;;8.60;99.90;;;;;;21157705;28;19950;-76
2024/03/15 22:14:19;;;;;;;;;;;8.40;99.90;;;;;;21161249;28;19916;-77
2024/03/15 22:24:19;;;;;;;;;;;8.30;99.90;;;;;;21151932;28;19916;-78
2024/03/15 22:34:20;;;;;;;;;;;8.30;99.90;;;;;;21127294;28;20173;-76
2024/03/15 22:44:21;;;;;;;;;;;8.30;99.90;;;;;;21141033;28;19968;-79
2024/03/15 22:54:21;;;;;;;;;;;8.30;99.90;;;;;;21122584;28;19957;-78
2024/03/15 23:04:22;;;;;;;;;;;8.40;99.90;;;;;;21127057;28;19942;-78
2024/03/15 23:14:23;;;;;;;;;;;8.40;99.90;;;;;;21125835;28;19949;-77
2024/03/15 23:24:24;;;;;;;;;;;8.20;99.90;;;;;;21119591;28;19974;-78
2024/03/15 23:34:25;;;;;;;;;;;8.30;99.90;;;;;;21129174;28;19911;-77
2024/03/15 23:44:25;;;;;;;;;;;8.40;99.90;;;;;;21131775;28;19916;-77
2024/03/15 23:54:26;;;;;;;;;;;8.60;99.90;;;;;;21132820;28;19916;-78
